createdAt,value
2022-12-31T00:01:52.036Z,27.05
2022-12-31T00:04:18.765Z,28.30
2022-12-31T00:06:46.262Z,29.85
2022-12-31T00:09:13.082Z,29.90
2022-12-31T00:11:40.327Z,32.65
2022-12-31T00:14:07.288Z,30.13
2022-12-31T00:16:37.771Z,28.83
2022-12-31T00:19:06.368Z,28.08
2022-12-31T00:21:34.208Z,27.60
2022-12-31T00:24:01.844Z,30.38
2022-12-31T00:26:31.179Z,27.40
2022-12-31T00:28:59.647Z,26.58
2022-12-31T00:31:32.307Z,27.92
2022-12-31T00:33:59.816Z,28.25
2022-12-31T00:36:29.737Z,28.42
2022-12-31T00:38:58.310Z,27.38
2022-12-31T00:41:26.986Z,26.05
2022-12-31T00:43:54.330Z,25.75
2022-12-31T00:46:21.863Z,26.70
2022-12-31T00:48:49.289Z,26.98
2022-12-31T00:51:17.932Z,28.05
2022-12-31T00:53:45.185Z,28.30
2022-12-31T00:56:15.686Z,30.25
2022-12-31T00:58:43.359Z,29.05
2022-12-31T01:01:10.240Z,29.10
2022-12-31T01:03:37.040Z,29.50
2022-12-31T01:06:04.087Z,27.50
2022-12-31T01:08:30.844Z,30.45
2022-12-31T01:11:16.199Z,27.92
2022-12-31T01:13:43.073Z,27.92
2022-12-31T01:16:12.378Z,27.45
2022-12-31T01:18:39.812Z,27.60
2022-12-31T01:21:10.385Z,26.75
2022-12-31T01:23:37.393Z,25.25
2022-12-31T01:26:07.484Z,25.60
2022-12-31T01:28:34.431Z,26.55
2022-12-31T01:31:10.847Z,27.65
2022-12-31T01:33:38.527Z,27.40
2022-12-31T01:36:29.567Z,30.17
2022-12-31T01:38:59.988Z,29.08
2022-12-31T01:41:29.928Z,29.42
2022-12-31T01:44:02.509Z,31.23
2022-12-31T01:46:34.792Z,29.30
2022-12-31T01:49:21.810Z,29.58
2022-12-31T01:51:54.986Z,28.50
2022-12-31T01:54:25.182Z,29.33
2022-12-31T01:56:53.757Z,30.08
2022-12-31T01:59:22.531Z,30.30
2022-12-31T02:01:55.104Z,30.35
2022-12-31T02:04:25.043Z,32.35
2022-12-31T02:07:01.915Z,31.95
2022-12-31T02:09:30.487Z,29.83
2022-12-31T02:11:57.210Z,31.33
2022-12-31T02:14:30.787Z,30.08
2022-12-31T02:17:09.788Z,29.65
2022-12-31T02:20:10.629Z,30.50
2022-12-31T02:22:43.210Z,30.25
2022-12-31T02:25:26.492Z,30.40
2022-12-31T02:27:53.291Z,29.08
2022-12-31T02:30:23.326Z,28.88
2022-12-31T02:35:23.195Z,28.30
2022-12-31T02:37:54.831Z,28.65
2022-12-31T02:40:22.882Z,28.50
2022-12-31T02:42:55.104Z,29.75
2022-12-31T02:45:29.764Z,29.75
2022-12-31T02:48:10.578Z,30.25
2022-12-31T02:51:05.252Z,28.95
2022-12-31T02:54:22.784Z,29.27
2022-12-31T02:56:53.641Z,28.80
2022-12-31T02:59:51.785Z,27.98
2022-12-31T03:02:23.723Z,26.40
2022-12-31T03:04:56.263Z,28.35
2022-12-31T03:07:29.033Z,27.48
2022-12-31T03:09:56.197Z,28.70
2022-12-31T03:12:45.639Z,29.05
2022-12-31T03:15:39.043Z,27.90
2022-12-31T03:18:07.258Z,27.15
2022-12-31T03:21:02.988Z,28.65
2022-12-31T03:23:36.090Z,28.92
2022-12-31T03:26:10.276Z,29.95
2022-12-31T03:28:41.805Z,29.25
2022-12-31T03:31:09.167Z,28.90
2022-12-31T03:33:39.236Z,29.13
2022-12-31T03:38:34.313Z,30.02
2022-12-31T03:41:01.042Z,28.15
2022-12-31T03:43:27.982Z,28.25
2022-12-31T03:45:55.240Z,30.60
2022-12-31T03:48:23.525Z,29.20
2022-12-31T03:50:50.938Z,30.23
2022-12-31T03:53:18.115Z,29.10
2022-12-31T03:55:44.957Z,30.13
2022-12-31T03:58:11.767Z,28.20
2022-12-31T04:00:38.591Z,30.42
2022-12-31T04:03:06.351Z,28.13
2022-12-31T04:05:33.804Z,29.50
2022-12-31T04:08:00.737Z,29.67
2022-12-31T04:10:27.432Z,29.15
2022-12-31T04:12:54.295Z,29.90
2022-12-31T04:15:21.610Z,28.55
2022-12-31T04:17:49.032Z,28.55
2022-12-31T04:20:16.308Z,29.70
2022-12-31T04:22:44.176Z,28.98
2022-12-31T04:25:11.735Z,28.10
2022-12-31T04:27:43.809Z,29.80
2022-12-31T04:30:12.639Z,29.23
2022-12-31T04:32:39.525Z,27.95
2022-12-31T04:35:07.025Z,30.63
2022-12-31T04:37:34.992Z,28.48
2022-12-31T04:40:05.800Z,28.50
2022-12-31T04:42:32.960Z,28.40
2022-12-31T04:44:59.786Z,29.42
2022-12-31T04:47:26.691Z,30.77
2022-12-31T04:49:53.460Z,27.63
2022-12-31T04:52:20.451Z,28.08
2022-12-31T04:54:47.215Z,30.90
2022-12-31T04:57:13.974Z,28.52
2022-12-31T04:59:40.825Z,28.83
2022-12-31T05:02:07.651Z,28.80
2022-12-31T05:04:34.737Z,29.58
2022-12-31T05:07:01.615Z,29.02
2022-12-31T05:09:28.446Z,27.85
2022-12-31T05:11:55.360Z,27.02
2022-12-31T05:14:22.560Z,28.45
2022-12-31T05:16:49.499Z,27.45
2022-12-31T05:19:16.630Z,28.42
2022-12-31T05:21:43.576Z,28.17
2022-12-31T05:24:10.376Z,28.00
2022-12-31T05:26:37.153Z,28.23
2022-12-31T05:29:03.953Z,27.42
2022-12-31T05:31:30.664Z,26.77
2022-12-31T05:33:57.518Z,27.27
2022-12-31T05:36:24.353Z,27.02
2022-12-31T05:38:51.119Z,25.55
2022-12-31T05:41:17.932Z,26.08
2022-12-31T05:43:44.705Z,23.70
2022-12-31T05:46:11.540Z,24.00
2022-12-31T05:48:38.291Z,26.25
2022-12-31T05:51:05.294Z,24.23
2022-12-31T05:53:33.448Z,24.23
2022-12-31T05:56:00.198Z,25.63
2022-12-31T05:58:26.981Z,26.27
2022-12-31T06:00:53.866Z,27.00
2022-12-31T06:03:20.774Z,26.48
2022-12-31T06:05:47.686Z,28.42
2022-12-31T06:08:14.500Z,28.40
2022-12-31T06:10:41.463Z,27.80
2022-12-31T06:13:09.139Z,28.17
2022-12-31T06:15:40.140Z,28.85
2022-12-31T06:18:08.089Z,28.58
2022-12-31T06:20:38.503Z,28.58
2022-12-31T06:23:05.912Z,26.98
2022-12-31T06:25:34.936Z,25.73
2022-12-31T06:28:01.776Z,27.40
2022-12-31T06:30:28.468Z,26.13
2022-12-31T06:32:55.997Z,27.50
2022-12-31T06:35:23.368Z,27.48
2022-12-31T06:37:52.191Z,28.25
2022-12-31T06:40:18.948Z,29.23
2022-12-31T06:42:45.949Z,28.83
2022-12-31T06:45:12.776Z,28.42
2022-12-31T06:47:39.539Z,29.58
2022-12-31T06:50:07.347Z,27.15
2022-12-31T06:52:34.098Z,27.83
2022-12-31T06:55:01.301Z,27.80
2022-12-31T06:57:28.407Z,28.00
2022-12-31T06:59:55.492Z,29.20
2022-12-31T07:02:27.371Z,26.95
2022-12-31T07:05:10.133Z,29.23
2022-12-31T07:07:46.172Z,30.25
2022-12-31T07:10:30.053Z,28.15
2022-12-31T07:13:06.906Z,27.60
2022-12-31T07:15:48.649Z,30.45
2022-12-31T07:18:37.994Z,29.25
2022-12-31T07:21:12.796Z,29.53
2022-12-31T07:23:40.907Z,28.10
2022-12-31T07:26:32.806Z,28.58
2022-12-31T07:29:17.094Z,28.60
2022-12-31T07:32:25.363Z,29.13
2022-12-31T07:35:35.271Z,29.67
2022-12-31T07:38:47.645Z,28.98
2022-12-31T07:41:23.365Z,30.65
2022-12-31T07:44:27.929Z,31.17
2022-12-31T07:46:58.088Z,29.80
2022-12-31T07:51:53.587Z,30.83
2022-12-31T07:54:20.566Z,28.48
2022-12-31T07:56:48.178Z,28.38
2022-12-31T07:59:26.786Z,26.88
2022-12-31T08:02:03.087Z,29.45
2022-12-31T08:05:01.893Z,31.20
2022-12-31T08:07:53.828Z,33.80
2022-12-31T08:10:32.971Z,29.02
2022-12-31T08:13:05.492Z,28.50
2022-12-31T08:15:32.594Z,27.55
2022-12-31T08:17:59.576Z,27.77
2022-12-31T08:20:27.240Z,28.95
2022-12-31T08:23:15.452Z,27.67
2022-12-31T08:26:03.486Z,27.48
2022-12-31T08:28:33.145Z,27.25
2022-12-31T08:31:14.941Z,29.30
2022-12-31T08:33:52.487Z,27.75
2022-12-31T08:36:28.320Z,26.80
2022-12-31T08:39:03.897Z,28.45
2022-12-31T08:41:44.188Z,28.13
2022-12-31T08:44:16.999Z,27.65
2022-12-31T08:47:04.032Z,27.00
2022-12-31T08:49:33.539Z,26.92
2022-12-31T08:52:01.386Z,26.95
2022-12-31T08:54:29.348Z,27.52
2022-12-31T08:57:14.746Z,27.42
2022-12-31T08:59:44.483Z,28.80
2022-12-31T09:02:29.618Z,28.35
2022-12-31T09:05:08.727Z,29.13
2022-12-31T09:08:00.556Z,30.30
2022-12-31T09:10:32.047Z,27.05
2022-12-31T09:13:23.662Z,29.75
2022-12-31T09:16:22.854Z,29.15
2022-12-31T09:18:49.712Z,27.97
2022-12-31T09:21:16.696Z,29.90
2022-12-31T09:23:44.079Z,30.33
2022-12-31T09:26:23.049Z,26.75
2022-12-31T09:29:12.368Z,28.38
2022-12-31T09:31:39.188Z,27.33
2022-12-31T09:35:04.052Z,29.75
2022-12-31T09:37:56.355Z,27.70
2022-12-31T09:40:23.096Z,30.80
2022-12-31T09:43:05.626Z,60.55
2022-12-31T09:46:26.692Z,39.55
2022-12-31T09:49:08.645Z,26.42
2022-12-31T09:51:47.572Z,25.95
2022-12-31T09:54:20.367Z,26.33
2022-12-31T09:56:59.703Z,26.95
2022-12-31T09:59:33.828Z,26.40
2022-12-31T10:02:13.151Z,40.78
2022-12-31T10:04:52.061Z,65.50
2022-12-31T10:07:38.423Z,44.28
2022-12-31T10:10:26.107Z,38.65
2022-12-31T10:13:07.955Z,30.38
2022-12-31T10:16:13.111Z,30.80
2022-12-31T10:18:54.774Z,27.50
2022-12-31T10:21:58.384Z,25.48
2022-12-31T10:24:44.343Z,25.90
2022-12-31T10:27:21.314Z,24.92
2022-12-31T10:30:03.626Z,23.70
2022-12-31T10:32:56.531Z,24.77
2022-12-31T10:36:00.588Z,23.35
2022-12-31T10:38:41.746Z,23.50
2022-12-31T10:41:36.095Z,23.35
2022-12-31T10:44:30.821Z,24.38
2022-12-31T10:47:41.802Z,25.05
2022-12-31T10:50:28.754Z,27.73
2022-12-31T10:53:09.438Z,42.83
2022-12-31T10:56:14.307Z,34.70
2022-12-31T10:59:02.819Z,26.42
2022-12-31T11:01:48.290Z,52.13
2022-12-31T11:04:21.098Z,36.80
2022-12-31T11:07:10.890Z,41.67
2022-12-31T11:09:40.658Z,32.63
2022-12-31T11:12:39.541Z,28.02
2022-12-31T11:15:29.032Z,32.15
2022-12-31T11:18:17.942Z,28.95
2022-12-31T11:21:11.038Z,27.40
2022-12-31T11:23:56.515Z,26.13
2022-12-31T11:26:44.569Z,29.20
2022-12-31T11:29:24.608Z,28.88
2022-12-31T11:35:06.242Z,23.90
2022-12-31T11:37:36.934Z,22.73
2022-12-31T11:40:19.745Z,22.83
2022-12-31T11:43:00.516Z,21.92
2022-12-31T11:45:48.597Z,24.42
2022-12-31T11:51:40.698Z,18.40
2022-12-31T11:54:38.876Z,20.00
2022-12-31T11:57:36.841Z,18.77
2022-12-31T12:00:19.074Z,18.75
2022-12-31T12:02:49.834Z,15.48
2022-12-31T12:05:20.617Z,14.88
2022-12-31T12:07:51.711Z,16.52
2022-12-31T12:10:43.466Z,16.05
2022-12-31T12:13:23.454Z,16.05
2022-12-31T12:18:47.878Z,15.73
2022-12-31T12:21:24.283Z,14.18
2022-12-31T12:24:19.788Z,13.02
2022-12-31T12:26:46.878Z,11.35
2022-12-31T12:29:19.726Z,11.18
2022-12-31T12:32:06.377Z,11.25
2022-12-31T12:34:43.107Z,9.15
2022-12-31T12:37:33.406Z,9.30
2022-12-31T12:40:09.437Z,8.82
2022-12-31T12:42:36.408Z,9.85
2022-12-31T12:45:21.889Z,9.20
2022-12-31T12:47:53.821Z,8.80
2022-12-31T12:50:24.371Z,7.72
2022-12-31T12:53:00.597Z,8.02
2022-12-31T12:55:33.951Z,7.75
2022-12-31T12:58:37.882Z,8.35
2022-12-31T13:01:27.364Z,7.20
2022-12-31T13:04:32.587Z,7.68
2022-12-31T13:06:55.976Z,4.60
2022-12-31T13:09:44.844Z,3.88
2022-12-31T13:12:27.771Z,3.63
2022-12-31T13:15:09.034Z,4.50
2022-12-31T13:17:59.906Z,4.20
2022-12-31T13:20:41.533Z,3.85
2022-12-31T13:23:28.450Z,4.20
2022-12-31T13:26:12.902Z,4.60
2022-12-31T13:28:42.793Z,4.13
2022-12-31T13:34:03.949Z,3.97
2022-12-31T13:36:35.626Z,4.03
2022-12-31T13:39:06.842Z,4.05
2022-12-31T13:41:40.247Z,4.78
2022-12-31T13:44:28.915Z,6.03
2022-12-31T13:47:20.523Z,5.47
2022-12-31T13:49:52.729Z,4.57
2022-12-31T13:52:36.116Z,4.75
2022-12-31T13:55:21.147Z,5.72
2022-12-31T13:58:02.125Z,5.30
2022-12-31T14:00:45.167Z,4.82
2022-12-31T14:03:52.787Z,4.68
2022-12-31T14:06:37.454Z,4.50
2022-12-31T14:09:06.066Z,4.93
2022-12-31T14:12:12.383Z,5.80
2022-12-31T14:15:03.389Z,6.18
2022-12-31T14:17:50.497Z,6.25
2022-12-31T14:20:33.732Z,7.13
2022-12-31T14:23:06.970Z,8.85
2022-12-31T14:25:39.156Z,10.20
2022-12-31T14:28:11.716Z,10.25
2022-12-31T14:30:44.765Z,7.28
2022-12-31T14:33:22.850Z,7.47
2022-12-31T14:35:57.927Z,7.13
2022-12-31T14:39:06.319Z,7.20
2022-12-31T14:42:10.319Z,9.18
2022-12-31T14:44:48.895Z,7.88
2022-12-31T14:47:36.838Z,7.07
2022-12-31T14:50:11.391Z,5.53
2022-12-31T14:53:03.757Z,5.00
2022-12-31T14:55:31.859Z,4.55
2022-12-31T15:01:03.441Z,5.18
2022-12-31T15:03:45.009Z,5.95
2022-12-31T15:06:41.788Z,7.60
2022-12-31T15:09:19.965Z,6.07
2022-12-31T15:12:04.901Z,8.13
2022-12-31T15:14:58.021Z,10.00
2022-12-31T15:17:50.286Z,10.10
2022-12-31T15:20:54.592Z,11.05
2022-12-31T15:23:33.975Z,11.60
2022-12-31T15:26:01.747Z,14.48
2022-12-31T15:28:38.746Z,13.05
2022-12-31T15:31:19.283Z,11.27
2022-12-31T15:34:08.139Z,8.23
2022-12-31T15:36:38.667Z,8.10
2022-12-31T15:39:11.692Z,8.25
2022-12-31T15:41:46.081Z,8.55
2022-12-31T15:44:55.429Z,9.50
2022-12-31T15:47:37.122Z,10.05
2022-12-31T15:50:15.327Z,7.57
2022-12-31T15:52:46.664Z,6.68
2022-12-31T15:55:32.827Z,6.25
2022-12-31T15:58:05.239Z,6.60
2022-12-31T16:00:52.492Z,9.40
2022-12-31T16:03:23.401Z,6.50
2022-12-31T16:05:51.427Z,5.45
2022-12-31T16:08:24.773Z,6.85
2022-12-31T16:10:55.264Z,7.60
2022-12-31T16:13:24.029Z,10.02
2022-12-31T16:16:21.193Z,10.50
2022-12-31T16:18:50.243Z,10.10
2022-12-31T16:21:29.182Z,10.13
2022-12-31T16:23:58.126Z,11.57
2022-12-31T16:26:31.654Z,11.15
2022-12-31T16:29:04.227Z,11.82
2022-12-31T16:31:31.847Z,10.95
2022-12-31T16:34:07.489Z,13.05
2022-12-31T16:36:35.544Z,11.63
2022-12-31T16:39:25.371Z,10.10
2022-12-31T16:42:06.687Z,10.70
2022-12-31T16:44:33.412Z,11.43
2022-12-31T16:47:02.707Z,9.77
2022-12-31T16:49:32.083Z,9.77
2022-12-31T16:52:03.547Z,10.40
2022-12-31T16:54:34.453Z,10.20
2022-12-31T16:57:02.079Z,8.90
2022-12-31T16:59:41.312Z,7.70
2022-12-31T17:02:30.383Z,7.53
2022-12-31T17:04:57.407Z,6.97
2022-12-31T17:07:39.069Z,6.50
2022-12-31T17:10:08.845Z,4.82
2022-12-31T17:13:25.080Z,4.95
2022-12-31T17:15:45.479Z,5.10
2022-12-31T17:18:19.867Z,4.90
2022-12-31T17:20:47.635Z,5.00
2022-12-31T17:23:25.867Z,5.00
2022-12-31T17:26:03.315Z,6.20
2022-12-31T17:28:48.557Z,6.20
2022-12-31T17:31:28.633Z,5.53
2022-12-31T17:34:13.667Z,5.40
2022-12-31T17:36:52.206Z,6.13
2022-12-31T17:39:21.741Z,10.25
2022-12-31T17:41:51.202Z,12.52
2022-12-31T17:44:21.487Z,10.77
2022-12-31T17:46:50.126Z,7.13
2022-12-31T17:49:17.691Z,5.50
2022-12-31T17:51:47.737Z,6.18
2022-12-31T17:54:18.825Z,6.13
2022-12-31T17:56:46.169Z,5.72
2022-12-31T17:59:18.857Z,5.28
2022-12-31T18:01:45.767Z,5.28
2022-12-31T18:04:14.426Z,4.97
2022-12-31T18:06:41.986Z,5.15
2022-12-31T18:09:09.165Z,5.20
2022-12-31T18:11:37.883Z,5.38
2022-12-31T18:14:04.942Z,5.00
2022-12-31T18:16:31.756Z,5.47
2022-12-31T18:19:00.715Z,4.65
2022-12-31T18:21:32.783Z,4.33
2022-12-31T18:26:28.068Z,5.20
2022-12-31T18:28:56.054Z,4.80
2022-12-31T18:31:26.368Z,5.30
2022-12-31T18:33:55.256Z,4.80
2022-12-31T18:36:23.552Z,5.15
2022-12-31T18:38:50.807Z,5.18
2022-12-31T18:41:22.969Z,5.20
2022-12-31T18:43:50.528Z,5.80
2022-12-31T18:46:22.264Z,6.50
2022-12-31T18:48:49.010Z,5.72
2022-12-31T18:51:31.484Z,6.28
2022-12-31T18:54:00.806Z,5.88
2022-12-31T18:56:28.245Z,4.75
2022-12-31T18:58:55.083Z,4.65
2022-12-31T19:01:34.063Z,4.90
2022-12-31T19:04:03.141Z,4.67
2022-12-31T19:06:30.740Z,4.68
2022-12-31T19:09:00.664Z,4.93
2022-12-31T19:11:28.183Z,5.82
2022-12-31T19:13:54.926Z,11.57
2022-12-31T19:16:21.833Z,10.93
2022-12-31T19:18:49.549Z,7.28
2022-12-31T19:21:22.557Z,7.45
2022-12-31T19:23:51.827Z,12.63
2022-12-31T19:26:22.804Z,15.00
2022-12-31T19:28:50.971Z,10.63
2022-12-31T19:31:18.128Z,17.13
2022-12-31T19:33:45.308Z,10.75
2022-12-31T19:36:20.291Z,11.93
2022-12-31T19:38:47.591Z,10.05
2022-12-31T19:41:17.408Z,10.35
2022-12-31T19:43:44.908Z,10.10
2022-12-31T19:46:16.210Z,9.90
2022-12-31T19:48:43.579Z,8.30
2022-12-31T19:51:19.919Z,6.10
2022-12-31T19:53:47.973Z,5.55
2022-12-31T19:56:17.841Z,6.15
2022-12-31T19:58:44.700Z,5.60
2022-12-31T20:01:23.894Z,5.18
2022-12-31T20:03:51.749Z,6.60
2022-12-31T20:06:19.659Z,5.57
2022-12-31T20:08:46.641Z,5.45
2022-12-31T20:11:19.588Z,5.35
2022-12-31T20:13:48.178Z,5.40
2022-12-31T20:16:17.659Z,5.30
2022-12-31T20:18:46.491Z,4.85
2022-12-31T20:21:17.725Z,5.70
2022-12-31T20:23:44.989Z,5.38
2022-12-31T20:26:11.832Z,5.10
2022-12-31T20:28:38.793Z,4.90
2022-12-31T20:31:14.476Z,4.22
2022-12-31T20:33:41.709Z,4.88
2022-12-31T20:36:13.751Z,4.50
2022-12-31T20:38:40.990Z,5.40
2022-12-31T20:41:18.790Z,3.95
2022-12-31T20:43:46.576Z,6.13
2022-12-31T20:46:19.619Z,9.57
2022-12-31T20:48:48.616Z,11.52
2022-12-31T20:51:17.056Z,17.95
2022-12-31T20:54:01.475Z,10.77
2022-12-31T20:56:30.621Z,7.07
2022-12-31T20:58:57.652Z,8.33
2022-12-31T21:01:25.688Z,7.60
2022-12-31T21:04:10.680Z,6.03
2022-12-31T21:06:37.582Z,5.05
2022-12-31T21:09:06.803Z,4.05
2022-12-31T21:11:53.751Z,3.80
2022-12-31T21:14:20.982Z,3.63
2022-12-31T21:16:47.771Z,3.90
2022-12-31T21:19:14.537Z,3.80
2022-12-31T21:21:41.502Z,3.38
2022-12-31T21:24:08.704Z,3.85
2022-12-31T21:26:35.556Z,3.83
2022-12-31T21:29:02.448Z,4.00
2022-12-31T21:31:29.219Z,3.75
2022-12-31T21:33:56.017Z,3.35
2022-12-31T21:36:22.830Z,3.42
2022-12-31T21:38:49.535Z,3.50
2022-12-31T21:41:35.620Z,3.65
2022-12-31T21:44:02.899Z,3.80
2022-12-31T21:46:30.068Z,3.78
2022-12-31T21:48:58.519Z,3.35
2022-12-31T21:51:26.142Z,3.75
2022-12-31T21:53:53.223Z,3.20
2022-12-31T21:56:21.376Z,2.95
2022-12-31T21:59:17.367Z,3.28
2022-12-31T22:02:02.755Z,3.17
2022-12-31T22:05:02.005Z,3.13
2022-12-31T22:07:16.444Z,3.13
2022-12-31T22:09:43.284Z,3.33
2022-12-31T22:12:10.099Z,3.70
2022-12-31T22:14:36.858Z,3.15
2022-12-31T22:17:03.657Z,4.00
2022-12-31T22:19:30.435Z,3.92
2022-12-31T22:21:57.254Z,3.90
2022-12-31T22:24:23.968Z,4.15
2022-12-31T22:26:52.197Z,4.25
2022-12-31T22:29:19.848Z,5.00
2022-12-31T22:31:46.664Z,5.20
2022-12-31T22:34:13.520Z,5.35
2022-12-31T22:36:40.604Z,4.90
2022-12-31T22:39:07.321Z,4.57
2022-12-31T22:41:35.001Z,4.35
2022-12-31T22:44:04.781Z,4.53
2022-12-31T22:49:00.053Z,4.25
2022-12-31T22:51:55.909Z,4.15
2022-12-31T22:54:14.874Z,4.85
2022-12-31T22:56:41.848Z,4.43
2022-12-31T22:59:09.350Z,3.78
2022-12-31T23:01:37.268Z,3.72
2022-12-31T23:04:04.542Z,4.60
2022-12-31T23:06:31.433Z,4.20
2022-12-31T23:09:17.000Z,4.68
2022-12-31T23:11:43.934Z,5.65
2022-12-31T23:14:34.875Z,4.88
2022-12-31T23:17:30.880Z,4.65
2022-12-31T23:20:18.861Z,4.57
2022-12-31T23:23:05.603Z,5.70
2022-12-31T23:25:34.182Z,5.80
2022-12-31T23:28:00.990Z,7.43
2022-12-31T23:30:28.458Z,7.85
2022-12-31T23:32:55.376Z,8.38
2022-12-31T23:35:22.387Z,10.43
2022-12-31T23:37:49.232Z,12.20
2022-12-31T23:40:21.172Z,9.88
2022-12-31T23:42:51.919Z,12.02
2022-12-31T23:47:45.357Z,8.18
2022-12-31T23:50:12.225Z,8.20
2022-12-31T23:52:38.919Z,6.82
2022-12-31T23:55:05.831Z,6.28
2022-12-31T23:57:32.735Z,5.68
